Time;durP1;ratioP1;P1;durP2;ratioP2;P2;SDS_P1;SDS_P2;PMS_P1;PMS_P2;Temp;Humidity;BMP_temperature;BMP_pressure;BME280_temperature;BME280_humidity;BME280_pressure;Samples;Min_cycle;Max_cycle;Signal;HPM_P1;HPM_P2
2022/08/10 00:01:10;;;;;;;3.50;3.20;;;;;;;21.21;55.90;64195.06;4947879;29;20208;-78
2022/08/10 00:03:38;;;;;;;4.53;3.72;;;;;;;21.18;55.77;64197.13;4943395;29;20410;-79
2022/08/10 00:06:05;;;;;;;4.30;3.92;;;;;;;21.07;56.29;64180.44;4937794;29;20231;-78
2022/08/10 00:08:32;;;;;;;3.97;3.70;;;;;;;21.12;56.33;64185.16;4948104;29;20216;-79
2022/08/10 00:10:59;;;;;;;3.63;3.28;;;;;;;20.99;56.41;64172.09;4945844;29;20252;-79
2022/08/10 00:13:26;;;;;;;4.07;3.58;;;;;;;20.98;56.32;64173.66;4945092;29;20279;-78
2022/08/10 00:15:53;;;;;;;4.00;3.58;;;;;;;20.93;56.87;64165.28;4947565;29;20220;-78
2022/08/10 00:18:21;;;;;;;3.95;3.75;;;;;;;20.84;56.43;64159.00;4947818;29;20227;-78
2022/08/10 00:20:49;;;;;;;4.18;3.72;;;;;;;20.83;56.03;64152.28;4945153;29;20243;-78
2022/08/10 00:23:16;;;;;;;4.10;3.70;;;;;;;20.74;56.02;64146.00;4943729;29;20275;-79
2022/08/10 00:25:43;;;;;;;4.00;3.75;;;;;;;20.78;56.64;64150.16;4947680;29;20252;-78
2022/08/10 00:28:10;;;;;;;3.28;3.03;;;;;;;20.69;55.97;64141.28;4940901;29;20400;-80
2022/08/10 00:30:37;;;;;;;3.45;3.25;;;;;;;20.60;56.40;64133.97;4945048;29;20239;-78
2022/08/10 00:33:04;;;;;;;4.22;3.88;;;;;;;20.53;57.47;64124.06;4945135;29;20287;-78
2022/08/10 00:35:31;;;;;;;3.75;3.55;;;;;;;20.53;57.50;64124.06;4946246;29;20201;-78
2022/08/10 00:37:59;;;;;;;3.88;3.67;;;;;;;20.44;56.63;64117.25;4944571;29;20251;-78
2022/08/10 00:40:26;;;;;;;3.35;3.25;;;;;;;20.42;57.06;64115.69;4942397;29;20198;-78
2022/08/10 00:42:53;;;;;;;3.63;3.40;;;;;;;20.38;57.54;64108.41;4946912;29;20208;-78
2022/08/10 00:45:20;;;;;;;5.75;4.10;;;;;;;20.38;57.35;64108.91;4947435;29;20212;-78
2022/08/10 00:47:47;;;;;;;4.57;4.18;;;;;;;20.35;57.55;64105.78;4946035;29;20404;-78
2022/08/10 00:50:16;;;;;;;4.47;3.97;;;;;;;20.35;57.50;64105.78;4936504;29;20225;-78
2022/08/10 00:52:44;;;;;;;3.88;3.58;;;;;;;20.34;57.30;64104.22;4928271;29;20241;-78
2022/08/10 00:55:13;;;;;;;4.07;3.72;;;;;;;20.28;58.05;64095.91;4931124;29;20221;-78
2022/08/10 00:57:40;;;;;;;3.60;3.30;;;;;;;20.25;57.66;64094.84;4946809;29;20344;-78
2022/08/10 01:00:10;;;;;;;4.65;3.85;;;;;;;20.29;57.79;64096.94;4931235;29;20475;-78
2022/08/10 01:02:39;;;;;;;3.17;2.97;;;;;;;20.21;58.06;64088.59;4927201;29;20212;-79
2022/08/10 01:05:09;;;;;;;4.32;3.35;;;;;;;20.11;57.98;64082.78;4932759;29;20415;-78
2022/08/10 01:07:56;;;;;;;3.90;3.60;;;;;;;20.06;58.41;64075.50;4928717;29;20198;-77
2022/08/10 01:10:37;;;;;;;4.00;3.78;;;;;;;20.10;58.75;64081.75;4944194;29;20203;-78
2022/08/10 01:13:10;;;;;;;4.43;3.38;;;;;;;20.02;59.41;64065.66;4945388;29;20247;-76
2022/08/10 01:15:47;;;;;;;5.85;3.42;;;;;;;19.96;59.24;64062.50;4928195;29;20486;-78
2022/08/10 01:18:21;;;;;;;4.47;4.18;;;;;;;19.96;59.98;64061.97;4942579;29;20220;-79
2022/08/10 01:21:08;;;;;;;3.88;3.67;;;;;;;19.92;59.65;64068.66;4947852;29;20207;-78
2022/08/10 01:24:05;;;;;;;3.63;3.42;;;;;;;19.91;59.57;64061.94;4943688;29;20303;-78
2022/08/10 01:26:49;;;;;;;3.28;3.17;;;;;;;19.99;59.03;64067.69;4938477;29;20249;-79
2022/08/10 01:29:58;;;;;;;3.70;3.40;;;;;;;19.88;59.17;64059.31;4938992;29;20440;-78
2022/08/10 01:32:42;;;;;;;3.40;3.20;;;;;;;19.81;58.72;64046.84;4903731;29;20325;-80
2022/08/10 01:35:15;;;;;;;4.07;3.80;;;;;;;19.90;60.26;64055.69;4900515;29;20222;-78
2022/08/10 01:37:49;;;;;;;3.60;3.33;;;;;;;19.78;59.68;64046.28;4916152;29;20205;-79
2022/08/10 01:40:21;;;;;;;4.80;3.80;;;;;;;19.74;59.58;64039.56;4928947;29;20245;-78
2022/08/10 01:42:50;;;;;;;3.72;3.53;;;;;;;19.72;59.17;64040.03;4945501;29;20204;-77
2022/08/10 01:45:21;;;;;;;3.40;3.20;;;;;;;19.68;59.47;64030.69;4946918;29;20243;-78
2022/08/10 01:50:40;;;;;;;3.72;3.50;;;;;;;19.74;59.08;64042.13;4942317;29;20207;-78
2022/08/10 01:53:12;;;;;;;3.63;3.45;;;;;;;19.77;59.43;64047.31;4946507;29;20228;-79
2022/08/10 01:55:40;;;;;;;3.53;3.30;;;;;;;19.85;58.98;64056.19;4950444;29;20381;-79
2022/08/10 01:58:10;;;;;;;3.13;3.03;;;;;;;19.78;58.98;64048.34;4950278;29;20205;-78
2022/08/10 02:00:44;;;;;;;3.30;3.20;;;;;;;19.94;59.16;64062.47;4945878;29;20245;-77
2022/08/10 02:03:12;;;;;;;3.92;3.53;;;;;;;19.96;57.74;64061.97;4933517;29;20233;-78
2022/08/10 02:05:42;;;;;;;3.95;3.65;;;;;;;20.03;57.65;64069.28;4950518;29;20201;-78
2022/08/10 02:08:13;;;;;;;3.83;3.45;;;;;;;20.07;57.86;64076.53;4947600;29;20244;-77
2022/08/10 02:10:42;;;;;;;4.03;3.80;;;;;;;20.08;57.93;64077.59;4942015;29;20534;-78
2022/08/10 02:13:10;;;;;;;3.50;3.30;;;;;;;20.16;57.17;64083.38;4931310;29;20433;-78
2022/08/10 02:15:40;;;;;;;4.05;3.75;;;;;;;20.16;57.42;64082.84;4931770;29;20211;-78
2022/08/10 02:18:09;;;;;;;3.45;3.25;;;;;;;20.18;57.55;64084.94;4945666;29;20264;-79
2022/08/10 02:20:39;;;;;;;3.75;3.55;;;;;;;20.14;57.82;64086.44;4946210;29;20205;-77
2022/08/10 02:23:10;;;;;;;4.05;3.20;;;;;;;20.16;58.13;64088.56;4949426;29;20561;-79
2022/08/10 02:25:38;;;;;;;4.18;3.78;;;;;;;20.12;58.62;64081.25;4948926;29;20378;-78
2022/08/10 02:28:06;;;;;;;4.28;3.88;;;;;;;20.17;58.45;64087.00;4946613;29;20198;-78
2022/08/10 02:30:34;;;;;;;4.00;3.70;;;;;;;20.23;58.60;64090.16;4950428;29;20201;-78
2022/08/10 02:33:04;;;;;;;3.95;3.65;;;;;;;20.23;58.92;64090.16;4948617;29;20236;-78
2022/08/10 02:35:32;;;;;;;3.75;3.45;;;;;;;20.26;58.88;64095.88;4937995;29;20216;-78
2022/08/10 02:38:04;;;;;;;4.03;3.72;;;;;;;20.25;58.84;64094.84;4949579;29;20244;-78
2022/08/10 02:40:35;;;;;;;3.80;3.50;;;;;;;20.28;58.39;64097.97;4949780;29;20197;-78
2022/08/10 02:43:08;;;;;;;3.42;3.22;;;;;;;20.34;58.58;64107.34;4941883;29;20240;-78
2022/08/10 02:45:42;;;;;;;4.35;3.95;;;;;;;20.33;59.19;64103.69;4946087;29;20221;-79
2022/08/10 02:48:18;;;;;;;4.15;3.75;;;;;;;20.29;59.57;64099.00;4949022;29;20249;-77
2022/08/10 02:50:51;;;;;;;6.55;3.90;;;;;;;20.22;60.23;64087.06;4949343;29;20241;-79
2022/08/10 02:53:23;;;;;;;4.50;4.10;;;;;;;20.18;60.23;64090.09;4940514;29;20465;-78
2022/08/10 02:55:56;;;;;;;3.53;3.33;;;;;;;20.23;60.10;64088.09;4949719;29;20192;-78
2022/08/10 02:58:28;;;;;;;3.42;3.33;;;;;;;20.22;60.40;64094.28;4949536;29;20391;-78
2022/08/10 03:00:57;;;;;;;4.13;3.50;;;;;;;20.34;60.28;64104.22;4946941;29;20196;-79
2022/08/10 03:03:28;;;;;;;4.07;3.78;;;;;;;20.29;60.41;64096.94;4943636;29;20228;-79
2022/08/10 03:06:00;;;;;;;4.10;3.80;;;;;;;20.24;60.66;64091.22;4948585;29;20201;-78
2022/08/10 03:08:33;;;;;;;4.03;3.83;;;;;;;20.17;60.96;64087.00;4951053;29;20225;-78
2022/08/10 03:11:03;;;;;;;19.15;15.40;;;;;;;20.18;61.47;64090.09;4943167;29;20212;-80
2022/08/10 03:13:32;;;;;;;4.28;4.00;;;;;;;20.23;61.03;64093.28;4949135;29;20252;-78
2022/08/10 03:16:01;;;;;;;6.35;4.20;;;;;;;20.18;60.76;64088.06;4948977;29;20209;-78
2022/08/10 03:18:31;;;;;;;4.68;4.22;;;;;;;20.17;61.36;64092.16;4949328;29;20245;-78
2022/08/10 03:20:59;;;;;;;4.43;4.03;;;;;;;20.11;62.63;64083.31;4941870;29;20253;-77
2022/08/10 03:23:28;;;;;;;14.52;12.30;;;;;;;20.07;62.70;64079.13;4949284;29;20217;-78
2022/08/10 03:25:58;;;;;;;7.35;6.72;;;;;;;20.11;62.83;64082.78;4949814;29;20208;-77
2022/08/10 03:28:27;;;;;;;4.90;4.35;;;;;;;20.10;62.29;64074.53;4946662;29;20220;-77
2022/08/10 03:30:55;;;;;;;4.32;4.13;;;;;;;19.97;63.02;64063.00;4945140;29;20205;-77
2022/08/10 03:33:26;;;;;;;4.55;4.20;;;;;;;19.87;63.54;64060.84;4948301;29;20295;-78
2022/08/10 03:35:54;;;;;;;4.63;4.25;;;;;;;19.83;64.28;64048.41;4949165;29;20193;-78
2022/08/10 03:38:21;;;;;;;4.28;3.88;;;;;;;19.74;64.62;64039.03;4943176;29;20277;-79
2022/08/10 03:40:50;;;;;;;19.80;14.25;;;;;;;19.81;64.65;64049.41;4948829;29;20201;-77
2022/08/10 03:43:20;;;;;;;5.72;4.63;;;;;;;19.81;64.86;64048.91;4948790;29;20536;-77
2022/08/10 03:45:51;;;;;;;4.03;3.83;;;;;;;19.78;65.64;64043.72;4948590;29;20239;-78
2022/08/10 03:48:20;;;;;;;4.30;4.00;;;;;;;19.67;65.79;64034.31;4939518;29;20260;-78
2022/08/10 03:50:49;;;;;;;5.13;4.68;;;;;;;19.64;66.94;64031.19;4948769;29;20204;-78
2022/08/10 03:53:18;;;;;;;4.32;3.95;;;;;;;19.61;67.93;64031.16;4948738;29;20406;-80
2022/08/10 03:55:45;;;;;;;5.30;4.93;;;;;;;19.66;68.25;64033.25;4945688;29;20402;-78
2022/08/10 03:58:13;;;;;;;5.72;5.30;;;;;;;19.69;68.04;64036.91;4945504;29;20263;-79
2022/08/10 04:00:41;;;;;;;27.23;21.05;;;;;;;19.71;67.61;64039.00;4948434;29;20240;-79
2022/08/10 04:03:10;;;;;;;5.63;4.70;;;;;;;19.72;67.03;64039.50;4946061;29;20296;-78
2022/08/10 04:05:37;;;;;;;6.43;4.07;;;;;;;19.83;66.79;64051.50;4941163;29;20201;-78
2022/08/10 04:08:05;;;;;;;6.82;4.63;;;;;;;19.79;67.85;64049.41;4944034;29;20205;-77
2022/08/10 04:10:34;;;;;;;5.05;4.68;;;;;;;19.90;67.81;64058.28;4931655;29;20220;-77
2022/08/10 04:13:01;;;;;;;6.40;4.32;;;;;;;19.94;67.27;64060.41;4947610;29;20233;-80
2022/08/10 04:15:28;;;;;;;8.00;5.07;;;;;;;19.93;67.81;64064.53;4945457;29;20240;-80
2022/08/10 04:17:54;;;;;;;4.45;4.05;;;;;;;19.93;68.06;64064.00;4947970;29;20201;-78
2022/08/10 04:20:28;;;;;;;4.28;3.97;;;;;;;19.90;68.09;64055.69;4948486;29;20197;-79
2022/08/10 04:22:59;;;;;;;5.03;4.70;;;;;;;19.93;68.90;64061.44;4947518;29;20223;-77
2022/08/10 04:25:27;;;;;;;4.68;4.28;;;;;;;19.98;68.62;64061.47;4947187;29;20272;-78
2022/08/10 04:27:56;;;;;;;5.25;4.95;;;;;;;20.03;69.58;64067.22;4946375;29;20342;-79
2022/08/10 04:30:23;;;;;;;5.40;4.88;;;;;;;20.09;69.17;64081.22;4948287;29;20204;-78
2022/08/10 04:32:55;;;;;;;5.88;4.40;;;;;;;20.29;68.62;64096.94;4943487;29;20209;-79
2022/08/10 04:35:23;;;;;;;6.80;4.75;;;;;;;20.38;68.63;64108.91;4946755;29;20196;-76
2022/08/10 04:37:53;;;;;;;5.00;4.65;;;;;;;20.51;68.99;64119.38;4947926;29;20363;-77
2022/08/10 04:40:21;;;;;;;5.22;4.75;;;;;;;20.50;70.26;64124.03;4946089;29;20256;-77
2022/08/10 04:42:48;;;;;;;4.72;4.43;;;;;;;20.44;71.38;64114.66;4940232;29;20212;-76
2022/08/10 04:45:16;;;;;;;5.57;5.13;;;;;;;20.48;70.70;64113.66;4946964;29;20256;-76
2022/08/10 04:47:44;;;;;;;5.88;5.00;;;;;;;20.41;72.62;64108.94;4947781;29;20207;-79
2022/08/10 04:50:11;;;;;;;6.95;5.07;;;;;;;20.60;72.50;64131.38;4940357;29;20329;-78
2022/08/10 04:52:38;;;;;;;5.30;4.90;;;;;;;20.77;72.32;64146.00;4943942;29;20244;-78
2022/08/10 04:55:06;;;;;;;6.28;5.43;;;;;;;20.97;72.22;64170.00;4947304;29;20224;-78
2022/08/10 04:57:33;;;;;;;6.57;5.07;;;;;;;21.12;71.92;64187.75;4945879;29;20200;-77
2022/08/10 05:00:00;;;;;;;5.82;5.38;;;;;;;21.27;71.16;64198.75;4940745;29;20236;-77
2022/08/10 05:02:28;;;;;;;6.22;5.72;;;;;;;21.08;72.30;64176.31;4946722;29;20213;-78
2022/08/10 05:04:55;;;;;;;5.38;5.07;;;;;;;21.27;72.69;64201.34;4946541;29;20221;-79
2022/08/10 05:07:23;;;;;;;7.32;5.60;;;;;;;21.45;71.40;64220.13;4947680;29;20200;-78
2022/08/10 05:09:51;;;;;;;7.57;5.25;;;;;;;21.52;72.03;64229.50;4937988;29;20420;-79
2022/08/10 05:12:17;;;;;;;9.27;5.40;;;;;;;21.31;73.65;64202.91;4945796;29;20488;-78
2022/08/10 05:14:44;;;;;;;6.80;6.10;;;;;;;21.48;73.50;64223.28;4946542;29;20248;-76
2022/08/10 05:17:11;;;;;;;6.07;5.47;;;;;;;21.41;74.43;64212.84;4943257;29;20493;-76
2022/08/10 05:19:40;;;;;;;16.55;6.25;;;;;;;21.11;78.24;64184.09;4940366;29;20224;-76
2022/08/10 05:22:08;;;;;;;5.93;5.53;;;;;;;21.03;78.59;64178.88;4946033;29;20209;-77
2022/08/10 05:24:35;;;;;;;7.70;6.05;;;;;;;21.21;77.70;64197.16;4945594;29;20225;-78
2022/08/10 05:27:01;;;;;;;6.00;5.35;;;;;;;21.33;76.86;64207.09;4938346;29;20209;-77
2022/08/10 05:29:29;;;;;;;7.18;6.15;;;;;;;21.31;77.67;64202.41;4947781;29;20272;-78
2022/08/10 05:31:56;;;;;;;6.82;6.22;;;;;;;21.18;79.46;64186.75;4945752;29;20432;-77
2022/08/10 05:34:26;;;;;;;9.80;6.70;;;;;;;21.24;79.54;64200.28;4945665;29;20268;-79
2022/08/10 05:36:55;;;;;;;8.10;5.72;;;;;;;21.26;79.32;64197.19;4940797;29;20196;-78
2022/08/10 05:39:22;;;;;;;7.32;6.13;;;;;;;21.53;76.87;64227.97;4947190;29;20221;-77
2022/08/10 05:41:52;;;;;;;6.22;5.72;;;;;;;21.51;78.00;64229.00;4946371;29;20204;-77
2022/08/10 05:44:20;;;;;;;9.95;6.45;;;;;;;21.35;80.30;64209.16;4944131;29;20263;-76
2022/08/10 05:46:47;;;;;;;7.07;6.38;;;;;;;21.31;81.64;64207.59;4941352;29;20252;-79
2022/08/10 05:49:14;;;;;;;7.28;6.60;;;;;;;21.56;80.25;64228.50;4946938;29;20224;-78
2022/08/10 05:51:42;;;;;;;7.15;6.47;;;;;;;21.75;79.34;64245.78;4946291;29;20197;-78
2022/08/10 05:54:14;;;;;;;7.53;6.90;;;;;;;21.49;81.63;64223.78;4939027;29;20429;-77
2022/08/10 05:56:44;;;;;;;7.38;6.65;;;;;;;21.56;81.16;64229.03;4945232;29;20209;-79
2022/08/10 05:59:12;;;;;;;9.52;7.30;;;;;;;21.69;82.70;64239.50;4930459;29;20268;-78
2022/08/10 06:01:42;;;;;;;12.43;7.15;;;;;;;21.80;81.10;64253.59;4946595;29;20268;-78
2022/08/10 06:04:11;;;;;;;7.25;6.75;;;;;;;21.97;76.33;64270.84;4943137;29;20296;-78
2022/08/10 06:06:40;;;;;;;9.07;6.88;;;;;;;22.07;76.31;64284.41;4945700;29;20205;-76
2022/08/10 06:09:09;;;;;;;7.47;6.85;;;;;;;21.93;74.71;64271.84;4946457;29;20466;-78
2022/08/10 06:11:39;;;;;;;8.00;7.20;;;;;;;22.08;76.48;64282.34;4947092;29;20275;-76
2022/08/10 06:16:52;;;;;;;10.77;6.38;;;;;;;22.04;71.24;64286.47;4944220;29;20248;-78
2022/08/10 06:19:19;;;;;;;6.95;6.35;;;;;;;22.27;72.04;64305.31;4945492;29;20224;-77
2022/08/10 06:21:48;;;;;;;7.18;6.10;;;;;;;22.45;70.53;64321.03;4943577;29;20212;-77
2022/08/10 06:24:17;;;;;;;6.97;6.28;;;;;;;22.23;72.01;64295.41;4946533;29;20412;-77
2022/08/10 06:26:45;;;;;;;8.85;6.38;;;;;;;22.19;71.79;64294.38;4941897;29;20205;-81
2022/08/10 06:29:14;;;;;;;7.05;6.40;;;;;;;22.17;75.10;64294.34;4946221;29;20227;-76
2022/08/10 06:31:45;;;;;;;6.70;6.13;;;;;;;22.31;71.55;64306.91;4943925;29;20213;-79
2022/08/10 06:34:14;;;;;;;6.90;6.28;;;;;;;22.42;71.15;64313.22;4946643;29;20247;-78
2022/08/10 06:36:43;;;;;;;6.63;5.95;;;;;;;22.62;69.32;64344.50;4946506;29;20244;-77
2022/08/10 06:39:11;;;;;;;6.63;6.07;;;;;;;22.62;68.12;64336.72;4942799;29;20276;-76
2022/08/10 06:41:45;;;;;;;10.00;7.10;;;;;;;22.74;69.50;64351.88;4945525;29;20209;-75
2022/08/10 06:44:19;;;;;;;7.38;6.75;;;;;;;22.67;69.89;64346.63;4948126;29;20427;-76
2022/08/10 06:46:50;;;;;;;13.43;7.70;;;;;;;22.34;73.72;64310.03;4932186;29;20201;-76
2022/08/10 06:49:22;;;;;;;8.80;8.10;;;;;;;22.58;72.91;64337.75;4949901;29;20228;-77
2022/08/10 06:51:53;;;;;;;8.65;7.20;;;;;;;22.80;69.14;64362.81;4950014;29;20443;-77
2022/08/10 06:54:24;;;;;;;10.52;8.18;;;;;;;22.66;70.76;64343.50;4949194;29;20436;-77
2022/08/10 06:56:55;;;;;;;8.85;7.95;;;;;;;22.35;72.66;64310.56;4943678;29;20197;-75
2022/08/10 06:59:27;;;;;;;8.63;7.70;;;;;;;22.27;73.52;64304.78;4934810;29;20549;-75
2022/08/10 07:01:59;;;;;;;10.75;9.18;;;;;;;22.09;73.52;64289.09;4937035;29;20213;-75
2022/08/10 07:04:30;;;;;;;8.57;7.55;;;;;;;21.99;73.17;64273.47;4939722;29;20224;-76
2022/08/10 07:07:00;;;;;;;8.60;7.78;;;;;;;22.20;75.83;64295.41;4947992;29;20284;-77
2022/08/10 07:09:28;;;;;;;9.55;8.25;;;;;;;22.64;70.72;64341.41;4952060;29;20212;-79
2022/08/10 07:11:56;;;;;;;8.38;7.05;;;;;;;22.96;68.17;64376.97;4949321;29;20200;-80
2022/08/10 07:14:26;;;;;;;9.15;8.18;;;;;;;23.18;70.03;64399.97;4949498;29;20281;-76
2022/08/10 07:16:55;;;;;;;9.85;8.85;;;;;;;23.32;69.28;64416.69;4947170;29;20231;-78
2022/08/10 07:19:25;;;;;;;14.45;7.88;;;;;;;23.32;68.50;64417.22;4948803;29;20541;-78
2022/08/10 07:21:53;;;;;;;7.70;6.53;;;;;;;23.30;61.36;64412.53;4945641;29;20203;-78
2022/08/10 07:24:22;;;;;;;8.52;7.78;;;;;;;23.17;64.76;64395.81;4947065;29;20232;-75
2022/08/10 07:26:52;;;;;;;10.13;7.80;;;;;;;23.07;65.82;64387.94;4947063;29;20430;-79
2022/08/10 07:29:20;;;;;;;8.23;7.53;;;;;;;23.44;63.35;64424.06;4949125;29;20219;-79
2022/08/10 07:31:50;;;;;;;9.07;8.18;;;;;;;23.62;63.45;64446.03;4943664;29;20209;-77
2022/08/10 07:34:21;;;;;;;10.68;7.68;;;;;;;23.87;61.86;64472.19;4948080;29;20248;-79
2022/08/10 07:36:51;;;;;;;8.32;7.55;;;;;;;23.99;58.58;64484.75;4949373;29;20215;-79
2022/08/10 07:39:19;;;;;;;8.85;8.00;;;;;;;23.64;62.32;64450.69;4946423;29;20253;-78
2022/08/10 07:41:49;;;;;;;9.48;7.03;;;;;;;23.75;59.53;64461.69;4943739;29;20201;-77
2022/08/10 07:44:18;;;;;;;9.50;7.03;;;;;;;24.00;58.97;64487.88;4947141;29;20283;-78
2022/08/10 07:46:50;;;;;;;8.00;7.30;;;;;;;24.16;60.03;64504.13;4946467;29;20215;-77
2022/08/10 07:49:21;;;;;;;8.95;8.13;;;;;;;23.70;61.44;64449.19;4940226;29;20229;-74
2022/08/10 07:51:51;;;;;;;10.50;8.93;;;;;;;23.42;62.19;64421.97;4930431;29;20209;-77
2022/08/10 07:54:20;;;;;;;10.07;8.93;;;;;;;23.65;64.48;64443.44;4941397;29;20280;-81
2022/08/10 07:56:51;;;;;;;10.27;8.63;;;;;;;23.71;63.34;64455.44;4946094;29;20260;-75
2022/08/10 07:59:22;;;;;;;9.50;8.55;;;;;;;23.32;64.38;64412.03;4947480;29;20291;-77
2022/08/10 08:01:54;;;;;;;9.65;8.63;;;;;;;23.40;63.02;64417.28;4944365;29;20273;-76
2022/08/10 08:04:24;;;;;;;8.15;7.45;;;;;;;23.62;60.40;64443.44;4936872;29;20556;-78
2022/08/10 08:06:53;;;;;;;6.65;6.05;;;;;;;24.02;55.45;64487.38;4939647;29;20206;-78
2022/08/10 08:09:22;;;;;;;7.20;6.57;;;;;;;23.94;56.11;64476.91;4945516;29;20649;-76
2022/08/10 08:11:49;;;;;;;7.97;7.20;;;;;;;24.14;56.15;64494.75;4947093;29;20260;-79
2022/08/10 08:14:19;;;;;;;8.93;7.20;;;;;;;24.32;55.70;64518.25;4949054;29;20429;-76
2022/08/10 08:16:49;;;;;;;9.43;7.03;;;;;;;23.93;56.19;64478.47;4947771;29;20197;-81
2022/08/10 08:19:19;;;;;;;7.55;6.85;;;;;;;24.32;54.92;64518.25;4948463;29;20228;-78
2022/08/10 08:21:48;;;;;;;7.15;6.45;;;;;;;24.64;52.79;64549.16;4936493;29;20205;-77
2022/08/10 08:24:16;;;;;;;7.40;6.70;;;;;;;24.47;55.26;64534.47;4948376;29;20256;-80
2022/08/10 08:26:45;;;;;;;7.95;7.20;;;;;;;24.76;53.31;64564.88;4948399;29;20283;-79
2022/08/10 08:29:13;;;;;;;7.07;6.43;;;;;;;24.80;52.50;64571.66;4948636;29;20221;-76
2022/08/10 08:31:40;;;;;;;8.70;7.10;;;;;;;24.56;53.29;64540.78;4947282;29;20459;-77
2022/08/10 08:34:09;;;;;;;7.35;6.65;;;;;;;24.58;53.13;64550.69;4946438;29;20240;-76
2022/08/10 08:36:40;;;;;;;13.13;6.80;;;;;;;24.51;54.04;64540.75;4944832;29;20213;-79
2022/08/10 08:39:07;;;;;;;8.05;7.22;;;;;;;24.67;53.07;64555.44;4948406;29;20224;-78
2022/08/10 08:42:04;;;;;;;7.25;6.50;;;;;;;25.04;52.57;64593.66;4948984;29;20251;-79
2022/08/10 08:44:44;;;;;;;8.63;6.45;;;;;;;25.21;51.56;64608.34;4944989;29;20264;-78
2022/08/10 08:47:29;;;;;;;10.80;7.13;;;;;;;25.37;52.13;64627.75;4942160;29;20197;-78
2022/08/10 08:50:11;;;;;;;7.63;6.95;;;;;;;24.98;53.43;64590.00;4946433;29;20224;-78
2022/08/10 08:52:51;;;;;;;8.02;7.38;;;;;;;25.29;52.14;64619.34;4946141;29;20321;-77
2022/08/10 08:55:28;;;;;;;9.82;7.13;;;;;;;25.57;51.15;64653.91;4940487;29;20232;-78
2022/08/10 08:58:07;;;;;;;7.75;7.05;;;;;;;25.57;50.86;64648.69;4944973;29;20213;-76
2022/08/10 09:00:43;;;;;;;7.22;6.63;;;;;;;25.63;49.90;64652.34;4947981;29;20214;-76
2022/08/10 09:03:32;;;;;;;7.55;6.88;;;;;;;25.79;50.08;64669.66;4939273;29;20209;-78
2022/08/10 09:06:07;;;;;;;7.20;6.60;;;;;;;25.77;50.43;64670.19;4929487;29;20190;-77
2022/08/10 09:09:20;;;;;;;6.68;6.07;;;;;;;25.95;49.58;64686.44;4937918;29;20295;-78
2022/08/10 09:12:01;;;;;;;8.52;6.63;;;;;;;25.86;49.31;64681.69;4933731;29;20204;-78
2022/08/10 09:14:36;;;;;;;7.53;6.90;;;;;;;26.06;48.13;64702.66;4946536;29;20232;-80
2022/08/10 09:17:15;;;;;;;7.55;6.60;;;;;;;26.04;48.32;64701.09;4931174;29;20213;-77
2022/08/10 09:19:49;;;;;;;7.00;6.40;;;;;;;25.90;49.53;64683.28;4942389;29;20518;-79
2022/08/10 09:22:25;;;;;;;8.07;7.28;;;;;;;26.08;48.66;64704.78;4947230;29;20385;-75
2022/08/10 09:24:58;;;;;;;7.15;6.55;;;;;;;26.42;48.05;64739.91;4947866;29;20220;-78
2022/08/10 09:27:36;;;;;;;6.88;6.30;;;;;;;26.50;47.50;64745.66;4946457;29;20248;-78
2022/08/10 09:30:06;;;;;;;8.48;6.63;;;;;;;26.50;47.64;64745.66;4948042;29;20228;-77
2022/08/10 09:32:40;;;;;;;6.38;5.90;;;;;;;25.61;49.26;64652.88;4937879;29;20209;-77
2022/08/10 09:35:14;;;;;;;10.13;7.05;;;;;;;25.74;49.37;64672.25;4946911;29;20239;-79
2022/08/10 09:37:47;;;;;;;7.20;6.03;;;;;;;26.04;48.70;64701.09;4944213;29;20272;-78
2022/08/10 09:40:24;;;;;;;7.38;6.68;;;;;;;26.37;47.31;64737.78;4947767;29;20620;-77
2022/08/10 09:43:00;;;;;;;7.60;6.90;;;;;;;26.26;48.15;64726.25;4949371;29;20205;-78
2022/08/10 09:45:49;;;;;;;11.75;6.93;;;;;;;26.60;48.17;64754.06;4946178;29;20214;-78
2022/08/10 09:48:25;;;;;;;8.15;7.13;;;;;;;26.60;48.82;64756.16;4946689;29;20232;-77
2022/08/10 09:51:01;;;;;;;10.35;7.60;;;;;;;26.69;49.25;64768.22;4944815;29;20428;-78
2022/08/10 09:53:50;;;;;;;9.35;6.50;;;;;;;26.86;47.36;64783.44;4946415;29;20284;-79
2022/08/10 09:56:28;;;;;;;7.45;6.43;;;;;;;27.10;47.02;64808.63;4947967;29;20251;-79
2022/08/10 09:59:06;;;;;;;7.05;6.53;;;;;;;26.74;47.28;64768.25;4947573;29;20220;-76
2022/08/10 10:01:42;;;;;;;7.55;6.95;;;;;;;26.54;48.08;64744.66;4947037;29;20208;-78
2022/08/10 10:04:15;;;;;;;7.15;6.50;;;;;;;26.92;46.84;64792.34;4946963;29;20438;-79
2022/08/10 10:06:52;;;;;;;6.90;6.22;;;;;;;27.35;45.88;64837.50;4949863;29;20209;-80
2022/08/10 10:09:25;;;;;;;6.43;5.82;;;;;;;27.67;44.94;64875.78;4947160;29;20247;-78
2022/08/10 10:12:11;;;;;;;6.78;6.18;;;;;;;27.51;45.88;64856.38;4946861;29;20407;-77
2022/08/10 10:17:48;;;;;;;7.10;4.35;;;;;;;26.78;45.50;64775.59;4948754;29;20221;-76
2022/08/10 10:20:27;;;;;;;8.02;4.72;;;;;;;26.28;46.85;64717.91;4950267;29;20247;-76
2022/08/10 10:23:07;;;;;;;8.75;4.90;;;;;;;26.19;47.93;64714.22;4947830;29;20214;-77
2022/08/10 10:25:42;;;;;;;5.80;4.72;;;;;;;26.42;46.50;64742.50;4945071;29;20204;-76
2022/08/10 10:28:27;;;;;;;5.53;5.13;;;;;;;26.69;45.75;64768.22;4945969;29;20231;-77
2022/08/10 10:31:06;;;;;;;5.78;4.80;;;;;;;26.83;45.52;64783.44;4946587;29;20201;-78
2022/08/10 10:33:51;;;;;;;8.05;4.10;;;;;;;26.85;45.52;64785.00;4947388;29;20248;-78
2022/08/10 10:36:20;;;;;;;3.97;3.78;;;;;;;26.60;45.74;64761.91;4930898;29;20544;-77
2022/08/10 10:38:48;;;;;;;4.30;4.00;;;;;;;26.71;45.79;64763.03;4943465;29;20228;-77
2022/08/10 10:41:29;;;;;;;4.65;4.25;;;;;;;27.18;45.39;64817.53;4938523;29;20225;-80
2022/08/10 10:44:13;;;;;;;4.55;4.25;;;;;;;27.24;44.56;64825.91;4945723;29;20239;-77
2022/08/10 10:46:54;;;;;;;9.20;4.40;;;;;;;26.91;44.84;64791.31;4931388;29;20333;-78
2022/08/10 10:49:38;;;;;;;4.70;4.30;;;;;;;27.38;44.42;64840.63;4936981;29;20224;-79
2022/08/10 10:52:19;;;;;;;10.02;4.32;;;;;;;27.50;44.37;64855.31;4951476;29;20225;-76
2022/08/10 10:54:56;;;;;;;4.45;4.15;;;;;;;26.64;47.12;64760.88;4949034;29;20280;-76
2022/08/10 10:57:29;;;;;;;6.68;4.15;;;;;;;26.21;48.81;64718.41;4940316;29;20420;-77
2022/08/10 11:00:04;;;;;;;5.82;4.32;;;;;;;25.90;49.64;64688.50;4944001;29;20225;-77
2022/08/10 11:03:01;;;;;;;4.75;4.32;;;;;;;25.67;49.69;64662.31;4938577;29;20211;-77
2022/08/10 11:05:37;;;;;;;4.78;4.47;;;;;;;25.58;50.03;64649.72;4945831;29;20217;-77
2022/08/10 11:08:10;;;;;;;4.40;3.80;;;;;;;26.03;49.45;64697.44;4945106;29;20197;-79
2022/08/10 11:10:44;;;;;;;4.55;4.25;;;;;;;26.41;47.52;64736.75;4946891;29;20228;-76
2022/08/10 11:13:33;;;;;;;6.53;4.32;;;;;;;27.01;46.16;64796.56;4948429;29;20263;-79
2022/08/10 11:16:08;;;;;;;4.95;4.65;;;;;;;27.32;46.61;64831.72;4945424;29;20408;-77
2022/08/10 11:18:55;;;;;;;4.85;4.30;;;;;;;27.22;46.77;64821.19;4941261;29;20555;-76
2022/08/10 11:21:37;;;;;;;4.75;4.28;;;;;;;27.76;45.94;64879.97;4944953;29;20546;-77
2022/08/10 11:24:13;;;;;;;4.50;4.13;;;;;;;27.61;44.94;64864.75;4948002;29;20288;-77
2022/08/10 11:26:46;;;;;;;4.65;4.28;;;;;;;27.73;44.72;64876.84;4948260;29;20383;-78
2022/08/10 11:29:18;;;;;;;4.97;4.60;;;;;;;27.55;44.95;64852.72;4947898;29;20232;-78
2022/08/10 11:31:57;;;;;;;4.65;4.18;;;;;;;27.33;45.61;64832.78;4946946;29;20204;-78
2022/08/10 11:34:32;;;;;;;6.25;5.22;;;;;;;26.88;46.17;64782.94;4950104;29;20225;-76
2022/08/10 11:37:10;;;;;;;6.28;4.40;;;;;;;27.15;46.13;64817.00;4937648;29;20236;-79
2022/08/10 11:39:44;;;;;;;6.60;4.30;;;;;;;27.10;46.41;64811.75;4949128;29;20228;-78
2022/08/10 11:42:21;;;;;;;7.45;4.38;;;;;;;26.97;46.63;64792.38;4947503;29;20384;-76
2022/08/10 11:44:56;;;;;;;10.93;4.63;;;;;;;27.07;46.27;64800.25;4941124;29;20616;-78
2022/08/10 11:47:33;;;;;;;5.80;4.38;;;;;;;27.25;47.13;64824.34;4947173;29;20265;-80
2022/08/10 11:50:07;;;;;;;8.50;4.25;;;;;;;27.88;45.65;64890.50;4947283;29;20220;-78
2022/08/10 11:52:39;;;;;;;11.68;4.90;;;;;;;27.70;45.58;64871.06;4945693;29;20197;-79
2022/08/10 11:55:13;;;;;;;8.77;5.32;;;;;;;27.66;45.47;64867.41;4936077;29;20572;-78
2022/08/10 11:57:42;;;;;;;6.50;5.15;;;;;;;27.59;45.31;64860.06;4951027;29;20494;-79
2022/08/10 12:00:09;;;;;;;4.68;4.25;;;;;;;27.21;45.63;64820.16;4948630;29;20217;-77
2022/08/10 12:02:42;;;;;;;5.78;4.47;;;;;;;26.85;46.03;64780.28;4946227;29;20213;-77